Aviation Digital Data Service (ADDS)

Output produced by METARs form (1423 UTC 07 December 2016)
found at http://aviationweather.gov/adds/metars/
 
KORH 071137Z 0712/0812 01004KT 1SM -SN OVC002 
     FM071500 00000KT 4SM BR OVC008 
     FM071700 00000KT P6SM OVC008 
     FM072300 25005KT P6SM BKN080